Time;durP1;ratioP1;P1;durP2;ratioP2;P2;SDS_P1;SDS_P2;PMS_P1;PMS_P2;Temp;Humidity;BMP_temperature;BMP_pressure;BME280_temperature;BME280_humidity;BME280_pressure;Samples;Min_cycle;Max_cycle;Signal;HPM_P1;HPM_P2
2021/12/21 00:02:20;;;;;;;10.73;1.50;;;25.80;39.60;;;;;;5029535;28;20278;-58
2021/12/21 00:04:50;;;;;;;3.70;1.25;;;25.80;39.70;;;;;;5029600;28;20201;-57
2021/12/21 00:07:20;;;;;;;2.40;1.45;;;25.90;40.10;;;;;;5029162;28;20310;-53
2021/12/21 00:09:51;;;;;;;3.88;1.23;;;25.90;40.10;;;;;;5029312;28;20228;-55
2021/12/21 00:12:24;;;;;;;3.03;1.20;;;25.90;40.20;;;;;;5027585;28;20287;-51
2021/12/21 00:15:02;;;;;;;2.20;1.17;;;26.00;40.30;;;;;;5046337;28;20187;-56
2021/12/21 00:20:31;;;;;;;5.20;1.67;;;26.10;40.30;;;;;;5027086;28;20210;-57
2021/12/21 00:25:48;;;;;;;4.95;1.20;;;26.10;39.90;;;;;;5029386;28;20293;-57
2021/12/21 00:28:18;;;;;;;5.13;0.82;;;26.10;39.50;;;;;;5029686;28;20204;-57
2021/12/21 00:30:51;;;;;;;5.03;1.30;;;26.10;39.60;;;;;;5037349;28;20290;-57
2021/12/21 00:33:21;;;;;;;4.20;1.00;;;26.10;39.50;;;;;;5032338;28;20207;-58
2021/12/21 00:35:52;;;;;;;3.95;1.30;;;26.10;39.40;;;;;;5032047;28;20258;-53
2021/12/21 00:38:22;;;;;;;5.07;1.30;;;26.10;39.40;;;;;;5039770;28;20223;-56
2021/12/21 00:40:53;;;;;;;4.80;0.95;;;26.10;39.20;;;;;;5041393;28;20652;-57
2021/12/21 00:43:23;;;;;;;2.55;0.90;;;26.10;39.00;;;;;;5044905;28;20192;-55
2021/12/21 00:45:55;;;;;;;4.93;1.30;;;26.10;38.40;;;;;;5044774;28;20549;-55
2021/12/21 00:48:28;;;;;;;5.03;0.98;;;26.10;38.40;;;;;;5027569;28;20284;-51
2021/12/21 00:51:00;;;;;;;3.35;1.30;;;26.10;38.40;;;;;;5027067;28;20261;-48
2021/12/21 00:53:33;;;;;;;2.67;1.23;;;26.10;38.10;;;;;;5026542;28;20212;-54
2021/12/21 00:56:03;;;;;;;3.08;1.25;;;26.10;38.00;;;;;;5032957;28;20224;-52
2021/12/21 00:58:34;;;;;;;7.32;1.65;;;26.10;37.80;;;;;;5028580;28;20775;-54
2021/12/21 01:01:07;;;;;;;5.45;1.60;;;26.10;37.60;;;;;;5031203;28;20192;-55
2021/12/21 01:03:40;;;;;;;4.50;1.25;;;26.10;37.60;;;;;;5027348;28;20196;-57
2021/12/21 01:06:16;;;;;;;3.75;1.30;;;26.10;37.40;;;;;;5028415;28;20565;-58
2021/12/21 01:09:00;;;;;;;4.47;1.30;;;26.10;37.40;;;;;;5026346;28;20230;-46
2021/12/21 01:11:34;;;;;;;2.92;0.93;;;26.10;37.50;;;;;;5027860;28;20536;-46
2021/12/21 01:14:24;;;;;;;5.55;1.58;;;26.10;37.50;;;;;;5042028;28;20187;-56
2021/12/21 01:17:05;;;;;;;3.35;1.55;;;26.20;37.80;;;;;;5043396;28;20250;-54
2021/12/21 01:19:40;;;;;;;4.55;1.77;;;26.20;37.50;;;;;;5028245;28;20227;-58
2021/12/21 01:22:17;;;;;;;4.68;1.50;;;26.20;37.20;;;;;;5041173;28;20313;-57
2021/12/21 01:25:09;;;;;;;3.55;1.33;;;26.20;37.20;;;;;;5030951;28;20204;-57
2021/12/21 01:27:52;;;;;;;5.68;1.80;;;26.20;36.90;;;;;;5029439;28;20227;-55
2021/12/21 01:30:35;;;;;;;5.20;1.60;;;26.20;36.60;;;;;;5031660;28;20211;-58
2021/12/21 01:33:22;;;;;;;4.25;1.50;;;26.30;36.70;;;;;;5032584;28;20611;-57
2021/12/21 01:35:54;;;;;;;4.63;1.17;;;26.30;36.80;;;;;;5037559;28;20199;-59
2021/12/21 01:38:31;;;;;;;5.20;1.38;;;26.30;36.70;;;;;;5043102;28;20246;-55
2021/12/21 01:41:07;;;;;;;4.25;1.48;;;26.30;36.90;;;;;;5041261;28;20196;-48
2021/12/21 01:43:42;;;;;;;5.93;1.88;;;26.30;37.20;;;;;;5032620;28;20655;-58
2021/12/21 01:51:48;;;;;;;5.78;1.48;;;26.30;36.30;;;;;;5036564;28;20764;-57
2021/12/21 01:54:18;;;;;;;5.30;1.52;;;26.30;36.30;;;;;;5033386;28;20211;-57
2021/12/21 01:56:49;;;;;;;4.88;1.65;;;26.30;36.40;;;;;;5038294;28;20324;-57
2021/12/21 01:59:19;;;;;;;4.22;1.10;;;26.30;36.50;;;;;;5046746;28;20200;-57
2021/12/21 02:01:49;;;;;;;4.97;1.20;;;26.30;36.30;;;;;;5045040;28;20579;-57
2021/12/21 02:04:22;;;;;;;6.78;1.50;;;26.40;36.30;;;;;;5046267;28;20282;-58
2021/12/21 02:06:52;;;;;;;6.38;1.48;;;26.30;36.20;;;;;;5044293;28;20215;-58
2021/12/21 02:09:29;;;;;;;3.55;1.30;;;26.40;36.30;;;;;;5038240;28;20214;-56
2021/12/21 02:11:59;;;;;;;6.88;1.60;;;26.40;36.40;;;;;;5043839;28;20191;-57
2021/12/21 02:14:30;;;;;;;5.88;1.55;;;26.40;36.40;;;;;;5044808;28;21737;-54
2021/12/21 02:17:17;;;;;;;6.72;1.45;;;26.40;36.40;;;;;;5031142;28;20711;-56
2021/12/21 02:20:10;;;;;;;4.53;1.58;;;26.40;36.50;;;;;;5039691;28;20208;-58
2021/12/21 02:22:46;;;;;;;5.35;1.70;;;26.40;36.40;;;;;;5034003;28;20207;-54
2021/12/21 02:25:41;;;;;;;7.30;2.10;;;26.40;36.30;;;;;;5047126;28;20203;-54
2021/12/21 02:28:23;;;;;;;9.82;1.70;;;26.40;36.30;;;;;;5033091;28;20216;-56
2021/12/21 02:30:55;;;;;;;4.60;1.67;;;26.40;36.40;;;;;;5033388;28;20200;-57
2021/12/21 02:33:27;;;;;;;4.70;2.03;;;26.40;36.60;;;;;;5030370;28;20722;-54
2021/12/21 02:36:00;;;;;;;6.63;1.70;;;26.40;36.70;;;;;;5044433;28;20722;-58
2021/12/21 02:38:32;;;;;;;3.30;1.48;;;26.40;36.50;;;;;;5042825;28;20270;-46
2021/12/21 02:41:02;;;;;;;6.25;1.83;;;26.40;36.10;;;;;;5034512;28;20573;-57
2021/12/21 02:43:35;;;;;;;6.40;1.77;;;26.40;35.90;;;;;;5031188;28;20295;-57
2021/12/21 02:46:06;;;;;;;5.13;1.63;;;26.50;36.10;;;;;;5032365;28;20200;-57
2021/12/21 02:48:36;;;;;;;4.78;1.63;;;26.50;36.10;;;;;;5031381;28;20203;-56
2021/12/21 02:51:09;;;;;;;7.47;2.05;;;26.50;36.00;;;;;;5030134;28;20295;-54
2021/12/21 02:53:39;;;;;;;6.70;2.05;;;26.40;35.70;;;;;;5031778;28;20242;-50
2021/12/21 02:56:10;;;;;;;6.15;1.60;;;26.50;35.70;;;;;;5032990;28;20573;-55
2021/12/21 02:58:40;;;;;;;5.43;1.65;;;26.40;35.60;;;;;;5035499;28;20306;-57
2021/12/21 03:01:13;;;;;;;7.63;2.03;;;26.40;35.50;;;;;;5039617;28;20204;-52
2021/12/21 03:03:43;;;;;;;5.20;1.60;;;26.40;35.90;;;;;;5032071;28;20283;-58
2021/12/21 03:06:40;;;;;;;5.70;1.73;;;26.40;36.20;;;;;;5037145;28;20215;-51
2021/12/21 03:09:18;;;;;;;8.73;1.80;;;26.40;36.30;;;;;;5029522;28;20212;-50
2021/12/21 03:11:56;;;;;;;4.97;1.90;;;26.40;36.10;;;;;;5036217;28;20576;-55
2021/12/21 03:14:27;;;;;;;5.95;1.50;;;26.40;36.10;;;;;;5038030;28;20203;-55
2021/12/21 03:16:58;;;;;;;5.18;1.73;;;26.40;36.30;;;;;;5030480;28;20645;-50
2021/12/21 03:19:28;;;;;;;5.25;1.45;;;26.40;36.20;;;;;;5028969;28;20694;-46
2021/12/21 03:22:01;;;;;;;6.38;1.95;;;26.50;36.50;;;;;;5028083;28;20200;-51
2021/12/21 03:24:31;;;;;;;7.03;1.88;;;26.50;36.70;;;;;;5028941;28;20203;-57
2021/12/21 03:27:02;;;;;;;6.15;1.55;;;26.50;36.40;;;;;;5029645;28;20220;-44
2021/12/21 03:29:32;;;;;;;5.88;1.60;;;26.50;36.10;;;;;;5042819;28;20253;-57
2021/12/21 03:32:03;;;;;;;5.18;1.52;;;26.50;36.20;;;;;;5043354;28;20204;-56
2021/12/21 03:34:33;;;;;;;4.85;1.73;;;26.50;36.40;;;;;;5038543;28;20195;-49
2021/12/21 03:37:11;;;;;;;6.38;1.50;;;26.50;36.60;;;;;;5043458;28;20310;-57
2021/12/21 03:39:42;;;;;;;5.50;1.65;;;26.50;36.70;;;;;;5031364;28;20257;-51
2021/12/21 03:42:14;;;;;;;6.70;1.55;;;26.50;36.70;;;;;;5042524;28;21274;-55
2021/12/21 03:44:45;;;;;;;3.05;0.98;;;26.50;36.60;;;;;;5045193;28;20200;-54
2021/12/21 03:47:16;;;;;;;4.95;1.20;;;26.50;36.50;;;;;;5046680;28;20654;-55
2021/12/21 03:52:28;;;;;;;6.50;1.60;;;26.50;35.70;;;;;;5028337;28;20636;-58
2021/12/21 03:55:00;;;;;;;4.82;1.33;;;26.50;35.60;;;;;;5041638;28;20196;-57
2021/12/21 03:57:31;;;;;;;6.20;1.25;;;26.50;35.60;;;;;;5032731;28;20771;-54
2021/12/21 04:00:02;;;;;;;4.47;1.10;;;26.50;35.80;;;;;;5034768;28;20287;-53
2021/12/21 04:02:32;;;;;;;2.85;1.10;;;26.60;35.60;;;;;;5042655;28;20635;-51
2021/12/21 04:05:03;;;;;;;6.38;1.40;;;26.60;35.70;;;;;;5029678;28;20227;-52
2021/12/21 04:07:35;;;;;;;5.90;1.58;;;26.60;35.90;;;;;;5043919;28;20298;-57
2021/12/21 04:10:07;;;;;;;5.43;1.23;;;26.60;35.80;;;;;;5027543;28;20208;-55
2021/12/21 04:12:38;;;;;;;4.43;1.40;;;26.60;35.50;;;;;;5045920;28;20659;-55
2021/12/21 04:15:09;;;;;;;6.63;1.40;;;26.60;35.60;;;;;;5028568;28;20192;-55
2021/12/21 04:17:40;;;;;;;4.07;1.42;;;26.60;35.70;;;;;;5040779;28;20302;-46
2021/12/21 04:20:11;;;;;;;6.18;1.35;;;26.60;35.70;;;;;;5038492;28;20278;-57
2021/12/21 04:22:43;;;;;;;6.38;1.20;;;26.60;35.70;;;;;;5042195;28;20195;-57
2021/12/21 04:25:14;;;;;;;3.42;1.20;;;26.60;35.60;;;;;;5024846;28;20196;-53
2021/12/21 04:27:44;;;;;;;3.58;1.13;;;26.60;35.50;;;;;;5039144;28;20664;-49
2021/12/21 04:30:17;;;;;;;4.45;1.20;;;26.60;35.10;;;;;;5032241;28;20204;-58
2021/12/21 04:32:47;;;;;;;8.13;1.90;;;26.60;35.10;;;;;;5026605;28;20200;-54
2021/12/21 04:35:20;;;;;;;5.65;1.70;;;26.60;35.20;;;;;;5029124;28;20276;-56
2021/12/21 04:37:57;;;;;;;4.20;1.23;;;26.60;35.10;;;;;;5029605;28;20232;-51
2021/12/21 04:40:39;;;;;;;6.93;1.38;;;26.60;35.30;;;;;;5028190;28;20286;-59
2021/12/21 04:43:13;;;;;;;7.97;1.27;;;26.60;36.00;;;;;;5039333;28;20286;-54
2021/12/21 04:45:44;;;;;;;9.68;1.50;;;26.60;35.60;;;;;;5040196;28;20290;-57
2021/12/21 04:48:14;;;;;;;4.38;1.15;;;26.60;35.80;;;;;;5027565;28;20212;-53
2021/12/21 04:50:45;;;;;;;7.80;1.27;;;26.70;36.80;;;;;;5031368;28;20196;-56
2021/12/21 04:53:18;;;;;;;5.15;1.50;;;26.70;36.40;;;;;;5042600;28;20606;-56
2021/12/21 04:55:48;;;;;;;6.38;1.10;;;26.80;36.70;;;;;;5041934;28;20207;-57
2021/12/21 04:58:19;;;;;;;3.65;1.02;;;26.90;36.80;;;;;;5038489;28;20228;-53
2021/12/21 05:00:50;;;;;;;4.35;1.25;;;26.90;36.90;;;;;;5043683;28;20199;-58
2021/12/21 05:03:20;;;;;;;3.85;1.17;;;26.90;36.90;;;;;;5036042;28;20204;-57
2021/12/21 05:05:51;;;;;;;6.70;1.15;;;27.00;37.00;;;;;;5029996;28;20283;-58
2021/12/21 05:08:26;;;;;;;3.90;1.23;;;27.00;37.10;;;;;;5036984;28;20226;-56
2021/12/21 05:11:00;;;;;;;3.50;1.15;;;27.10;37.10;;;;;;5039158;28;20199;-53
2021/12/21 05:13:32;;;;;;;2.75;1.05;;;27.20;37.20;;;;;;5035375;28;20596;-55
2021/12/21 05:16:03;;;;;;;4.80;1.23;;;27.20;37.20;;;;;;5029974;28;20196;-53
2021/12/21 05:18:35;;;;;;;4.40;1.17;;;27.30;37.30;;;;;;5027903;28;20232;-52
2021/12/21 05:21:06;;;;;;;5.28;1.25;;;27.30;37.30;;;;;;5026683;28;20296;-54
2021/12/21 05:23:38;;;;;;;3.75;1.10;;;27.40;37.40;;;;;;5032189;28;20206;-51
2021/12/21 05:26:08;;;;;;;4.13;1.10;;;27.40;37.40;;;;;;5032428;28;20203;-57
2021/12/21 05:28:39;;;;;;;3.80;1.20;;;27.50;37.50;;;;;;5045582;28;20203;-55
2021/12/21 05:31:09;;;;;;;3.63;1.30;;;27.50;37.50;;;;;;5035150;28;20279;-57
2021/12/21 05:33:40;;;;;;;2.92;1.02;;;27.60;37.60;;;;;;5039345;28;20673;-53
2021/12/21 05:36:10;;;;;;;3.22;0.90;;;27.60;37.60;;;;;;5046040;28;20198;-57
2021/12/21 05:38:48;;;;;;;6.22;1.40;;;27.70;37.60;;;;;;5044276;28;20222;-58
2021/12/21 05:41:25;;;;;;;2.85;1.00;;;27.70;37.50;;;;;;5044653;28;20597;-55
2021/12/21 05:43:55;;;;;;;3.65;1.08;;;27.80;37.40;;;;;;5041957;28;20291;-57
2021/12/21 05:46:26;;;;;;;3.47;1.10;;;27.80;37.40;;;;;;5033274;28;20299;-54
2021/12/21 05:48:56;;;;;;;2.45;1.08;;;27.80;37.30;;;;;;5032398;28;20192;-53
2021/12/21 05:51:27;;;;;;;2.83;0.90;;;27.80;37.20;;;;;;5045258;28;20210;-57
2021/12/21 05:53:59;;;;;;;2.38;0.90;;;27.90;37.40;;;;;;5041503;28;20199;-54
2021/12/21 05:56:29;;;;;;;2.38;1.00;;;27.90;37.50;;;;;;5044185;28;20215;-52
2021/12/21 05:59:02;;;;;;;4.00;1.25;;;27.90;37.70;;;;;;5043102;28;20219;-57
2021/12/21 06:01:32;;;;;;;3.88;1.20;;;28.00;37.80;;;;;;5030576;28;20352;-46
2021/12/21 06:04:03;;;;;;;2.38;1.00;;;28.00;37.80;;;;;;5030880;28;20822;-48
2021/12/21 06:06:33;;;;;;;2.33;1.00;;;28.00;37.80;;;;;;5030804;28;20222;-49
2021/12/21 06:09:09;;;;;;;2.65;1.00;;;28.10;37.70;;;;;;5031216;28;20294;-48
2021/12/21 06:11:46;;;;;;;2.70;0.80;;;28.10;37.70;;;;;;5031204;28;20713;-47
2021/12/21 06:23:01;;;;;;;1.60;0.80;;;28.30;38.50;;;;;;5013637;28;20199;-47
2021/12/21 06:25:39;;;;;;;1.65;0.70;;;28.30;37.60;;;;;;5046072;28;20206;-52
2021/12/21 06:28:11;;;;;;;3.35;0.80;;;28.30;37.40;;;;;;5030201;28;20290;-43
2021/12/21 06:30:43;;;;;;;1.42;0.70;;;28.30;37.30;;;;;;5043379;28;20195;-55
2021/12/21 06:33:14;;;;;;;1.88;0.77;;;28.40;37.30;;;;;;5036347;28;20319;-56
2021/12/21 06:35:45;;;;;;;2.03;0.80;;;28.30;37.10;;;;;;5035363;28;20294;-52
2021/12/21 06:38:15;;;;;;;1.83;0.75;;;28.40;37.10;;;;;;5041479;28;20597;-53
2021/12/21 06:40:48;;;;;;;1.88;0.90;;;28.40;37.10;;;;;;5032700;28;20192;-51
2021/12/21 06:43:19;;;;;;;3.63;0.90;;;28.40;37.10;;;;;;5032487;28;20202;-58
2021/12/21 06:45:55;;;;;;;2.17;0.85;;;28.40;37.10;;;;;;5042626;28;20608;-58
2021/12/21 06:51:19;;;;;;;1.80;1.00;;;28.50;37.20;;;;;;5047028;28;20249;-56
2021/12/21 06:53:52;;;;;;;1.85;0.80;;;28.50;37.20;;;;;;5030384;28;20231;-58
2021/12/21 06:56:26;;;;;;;1.52;0.70;;;28.60;37.30;;;;;;5041366;28;20223;-57
2021/12/21 06:58:56;;;;;;;2.13;0.80;;;28.60;37.30;;;;;;5043010;28;20241;-57
2021/12/21 07:01:28;;;;;;;1.95;0.82;;;28.60;37.20;;;;;;5035130;28;20294;-56
2021/12/21 07:04:00;;;;;;;2.88;0.75;;;28.60;37.20;;;;;;5033955;28;20207;-56
2021/12/21 07:06:31;;;;;;;1.42;0.80;;;28.60;37.20;;;;;;5040107;28;20226;-57
2021/12/21 07:09:07;;;;;;;1.70;0.80;;;28.60;37.20;;;;;;5029454;28;20228;-55
2021/12/21 07:11:43;;;;;;;2.22;0.50;;;28.60;37.10;;;;;;5030529;28;20299;-55
2021/12/21 07:19:49;;;;;;;2.92;0.88;;;28.70;37.20;;;;;;5047547;28;20456;-54
2021/12/21 07:22:20;;;;;;;2.65;0.80;;;28.70;37.20;;;;;;5046440;28;20198;-55
2021/12/21 07:24:50;;;;;;;2.63;0.80;;;28.70;37.20;;;;;;5040032;28;20282;-56
2021/12/21 07:27:25;;;;;;;2.95;0.70;;;28.70;37.10;;;;;;5031078;28;20311;-58
2021/12/21 07:29:56;;;;;;;0.73;0.50;;;28.60;37.00;;;;;;5036534;28;20707;-56
2021/12/21 07:32:26;;;;;;;1.88;0.77;;;28.60;36.90;;;;;;5042297;28;20279;-56
2021/12/21 07:34:56;;;;;;;1.98;0.80;;;28.60;36.90;;;;;;5031856;28;20192;-58
2021/12/21 07:37:27;;;;;;;1.27;0.68;;;28.60;36.90;;;;;;5029941;28;20315;-56
2021/12/21 07:39:57;;;;;;;2.38;0.90;;;28.60;37.00;;;;;;5028964;28;21054;-58
2021/12/21 07:42:30;;;;;;;2.42;0.63;;;28.60;37.10;;;;;;5030166;28;20279;-52
2021/12/21 07:45:00;;;;;;;1.38;0.77;;;28.60;37.00;;;;;;5041296;28;20283;-40
2021/12/21 07:47:31;;;;;;;2.58;0.82;;;28.50;37.00;;;;;;5024833;28;20215;-47
2021/12/21 07:50:01;;;;;;;1.90;0.98;;;28.50;36.40;;;;;;5029923;28;20284;-58
2021/12/21 07:52:32;;;;;;;3.33;0.85;;;28.50;35.80;;;;;;5037668;28;20282;-59
2021/12/21 07:55:03;;;;;;;3.13;0.82;;;28.40;35.80;;;;;;5040702;28;20283;-56
2021/12/21 07:57:35;;;;;;;2.05;0.60;;;28.40;36.00;;;;;;5033475;28;20307;-58
2021/12/21 08:00:06;;;;;;;2.72;1.05;;;28.30;36.10;;;;;;5042849;28;20786;-48
2021/12/21 08:02:39;;;;;;;1.88;0.73;;;28.30;36.50;;;;;;5028884;28;20234;-40
2021/12/21 08:05:10;;;;;;;4.15;1.02;;;28.30;36.40;;;;;;5046523;28;20192;-53
2021/12/21 08:07:47;;;;;;;2.63;1.00;;;28.20;36.40;;;;;;5029217;28;20251;-42
2021/12/21 08:10:25;;;;;;;3.60;1.25;;;28.20;36.40;;;;;;5028416;28;20207;-58
2021/12/21 08:12:58;;;;;;;3.20;0.80;;;28.20;36.40;;;;;;5028324;28;20716;-56
2021/12/21 08:15:29;;;;;;;2.08;0.82;;;28.20;36.40;;;;;;5028431;28;20275;-50
2021/12/21 08:17:59;;;;;;;1.90;0.90;;;28.20;36.40;;;;;;5040275;28;20298;-53
2021/12/21 08:20:30;;;;;;;3.17;1.00;;;28.20;36.40;;;;;;5036852;28;20691;-52
2021/12/21 08:23:01;;;;;;;3.40;1.10;;;28.10;36.40;;;;;;5028959;28;20628;-46
2021/12/21 08:25:32;;;;;;;1.60;0.73;;;28.10;36.40;;;;;;5028691;28;20283;-41
2021/12/21 08:28:06;;;;;;;2.70;0.82;;;28.00;36.40;;;;;;5029397;28;20302;-46
2021/12/21 08:30:37;;;;;;;1.50;0.70;;;28.00;36.50;;;;;;5040925;28;20204;-39
2021/12/21 08:33:07;;;;;;;2.33;0.90;;;28.00;36.60;;;;;;5028310;28;20287;-39
2021/12/21 08:35:39;;;;;;;2.05;0.70;;;28.00;36.60;;;;;;5039924;28;20282;-38
2021/12/21 08:38:14;;;;;;;1.48;0.80;;;27.90;36.60;;;;;;5042541;28;20959;-46
2021/12/21 08:40:48;;;;;;;2.97;0.88;;;27.90;36.70;;;;;;5039766;28;20218;-39
2021/12/21 08:43:24;;;;;;;1.40;0.88;;;27.80;36.70;;;;;;5036721;28;20202;-38
2021/12/21 08:45:55;;;;;;;3.22;1.30;;;27.80;36.70;;;;;;5033765;28;20697;-39
2021/12/21 08:48:27;;;;;;;6.68;2.00;;;27.80;36.80;;;;;;5041488;28;20636;-39
2021/12/21 08:50:58;;;;;;;6.07;1.80;;;27.80;36.90;;;;;;5041571;28;20647;-38
2021/12/21 08:53:29;;;;;;;4.15;2.00;;;27.70;36.90;;;;;;5028524;28;20215;-39
2021/12/21 08:55:59;;;;;;;9.70;2.60;;;27.70;37.00;;;;;;5026485;28;20279;-52
2021/12/21 08:58:32;;;;;;;4.82;2.22;;;27.70;37.10;;;;;;5041342;28;20251;-41
2021/12/21 09:01:02;;;;;;;7.30;3.00;;;27.70;37.00;;;;;;5040186;28;20230;-39
2021/12/21 09:03:33;;;;;;;9.70;3.80;;;27.70;37.10;;;;;;5029987;28;20277;-40
2021/12/21 09:06:04;;;;;;;11.02;3.70;;;27.60;37.00;;;;;;5033884;28;20234;-42
2021/12/21 09:08:34;;;;;;;11.63;4.13;;;27.60;37.00;;;;;;5037098;28;20228;-58
2021/12/21 09:11:05;;;;;;;8.77;4.03;;;27.50;37.00;;;;;;5031740;28;20285;-56
2021/12/21 09:13:38;;;;;;;11.02;3.80;;;27.50;37.00;;;;;;5037740;28;20212;-50
2021/12/21 09:16:11;;;;;;;7.78;3.47;;;27.50;37.10;;;;;;5044238;28;20211;-38
2021/12/21 09:18:42;;;;;;;11.68;3.45;;;27.50;37.10;;;;;;5038092;28;20279;-47
2021/12/21 09:21:12;;;;;;;10.27;3.90;;;27.40;37.10;;;;;;5041381;28;20233;-43
2021/12/21 09:23:43;;;;;;;10.73;3.90;;;27.40;37.10;;;;;;5029971;28;20218;-39
2021/12/21 09:26:13;;;;;;;11.13;4.13;;;27.40;37.20;;;;;;5036847;28;20290;-42
2021/12/21 09:28:46;;;;;;;9.10;4.10;;;27.30;37.20;;;;;;5035796;28;20299;-38
2021/12/21 09:31:17;;;;;;;11.75;4.38;;;27.30;37.30;;;;;;5027547;28;20196;-39
2021/12/21 09:33:48;;;;;;;10.32;4.63;;;27.30;37.40;;;;;;5027995;28;20326;-52
2021/12/21 09:36:18;;;;;;;8.32;3.75;;;27.20;37.40;;;;;;5028783;28;20291;-50
2021/12/21 09:38:49;;;;;;;9.45;3.75;;;27.20;37.50;;;;;;5026797;28;20300;-49
2021/12/21 09:41:20;;;;;;;10.93;4.10;;;27.20;37.50;;;;;;5044334;28;20250;-44
2021/12/21 09:43:52;;;;;;;7.07;3.72;;;27.20;37.50;;;;;;5026683;28;20223;-44
2021/12/21 09:46:23;;;;;;;11.30;4.15;;;27.10;37.50;;;;;;5029145;28;20284;-51
2021/12/21 09:48:53;;;;;;;9.20;3.80;;;27.10;37.50;;;;;;5027445;28;20283;-39
2021/12/21 09:51:24;;;;;;;9.52;4.35;;;27.10;37.60;;;;;;5025946;28;20684;-48
2021/12/21 09:53:57;;;;;;;7.72;3.60;;;27.10;37.60;;;;;;5023314;28;20288;-55
2021/12/21 09:56:28;;;;;;;11.70;3.63;;;27.10;37.60;;;;;;5013718;28;20228;-58
2021/12/21 09:59:00;;;;;;;9.63;3.58;;;27.00;37.60;;;;;;5026064;28;20685;-48
2021/12/21 10:01:31;;;;;;;9.30;3.80;;;27.00;37.60;;;;;;5026775;28;20224;-57
2021/12/21 10:04:01;;;;;;;8.32;3.78;;;27.00;37.70;;;;;;5027462;28;20283;-57
2021/12/21 10:06:31;;;;;;;9.85;3.72;;;26.90;37.60;;;;;;5026563;28;20930;-52
2021/12/21 10:09:09;;;;;;;8.45;3.47;;;26.90;37.80;;;;;;5025314;28;20212;-42
2021/12/21 10:11:47;;;;;;;8.55;3.63;;;26.90;37.70;;;;;;5019712;28;20291;-48
2021/12/21 10:14:20;;;;;;;10.07;2.88;;;26.80;37.80;;;;;;5017446;28;20201;-47
2021/12/21 10:16:50;;;;;;;10.18;3.67;;;26.80;37.90;;;;;;5023031;28;20311;-47
2021/12/21 10:19:24;;;;;;;6.32;3.25;;;26.80;37.90;;;;;;5025071;28;20280;-40
2021/12/21 10:21:55;;;;;;;9.20;3.47;;;26.70;38.00;;;;;;5017922;28;20616;-45
2021/12/21 10:24:29;;;;;;;6.85;3.22;;;26.70;38.00;;;;;;5030099;28;20283;-59
2021/12/21 10:27:10;;;;;;;5.57;2.85;;;26.70;38.10;;;;;;5014526;28;20298;-55
2021/12/21 10:29:47;;;;;;;7.32;3.35;;;26.70;38.10;;;;;;5031424;28;20635;-58
2021/12/21 10:32:22;;;;;;;6.88;2.90;;;26.70;38.20;;;;;;5019949;28;20288;-60
2021/12/21 10:34:56;;;;;;;7.80;3.03;;;26.70;38.20;;;;;;5028819;28;20279;-56
2021/12/21 10:37:28;;;;;;;7.65;3.28;;;26.60;38.20;;;;;;5027669;28;20632;-54
2021/12/21 10:40:17;;;;;;;5.70;2.80;;;26.60;38.20;;;;;;5028023;28;20270;-59
2021/12/21 10:42:52;;;;;;;6.45;3.28;;;26.60;38.60;;;;;;5029318;28;20230;-43
2021/12/21 10:45:29;;;;;;;5.55;2.53;;;26.50;38.20;;;;;;5027387;28;20617;-57
2021/12/21 10:48:01;;;;;;;5.57;2.90;;;26.50;38.30;;;;;;5029300;28;20512;-51
2021/12/21 10:50:33;;;;;;;5.70;2.78;;;26.50;38.40;;;;;;5029713;28;20287;-47
2021/12/21 10:53:05;;;;;;;5.30;2.47;;;26.50;38.40;;;;;;5029879;28;20286;-53
2021/12/21 10:55:38;;;;;;;5.43;2.50;;;26.40;38.40;;;;;;5027552;28;20200;-59
2021/12/21 10:58:15;;;;;;;6.15;2.65;;;26.40;38.40;;;;;;5017314;28;20334;-42
2021/12/21 11:00:50;;;;;;;5.05;2.42;;;26.40;38.50;;;;;;5027137;28;20595;-53
2021/12/21 11:03:30;;;;;;;5.43;2.80;;;26.40;38.50;;;;;;5020148;28;20231;-42
2021/12/21 11:06:12;;;;;;;4.97;2.47;;;26.40;38.60;;;;;;5028009;28;20282;-44
2021/12/21 11:08:43;;;;;;;4.95;2.17;;;26.30;38.60;;;;;;5028567;28;20309;-43
2021/12/21 11:11:27;;;;;;;4.57;2.38;;;26.30;38.70;;;;;;5029410;28;20287;-42
2021/12/21 11:14:06;;;;;;;5.20;2.33;;;26.30;38.70;;;;;;5028519;28;20602;-41
2021/12/21 11:16:44;;;;;;;4.10;2.03;;;26.30;38.80;;;;;;5026617;28;20284;-55
2021/12/21 11:19:15;;;;;;;3.35;2.13;;;26.20;38.70;;;;;;5025332;28;20632;-56
2021/12/21 11:21:48;;;;;;;4.18;2.00;;;26.20;38.70;;;;;;5028553;28;20306;-42
2021/12/21 11:24:19;;;;;;;3.55;2.28;;;26.20;38.80;;;;;;5029499;28;20279;-41
2021/12/21 11:26:51;;;;;;;4.60;2.10;;;26.20;38.80;;;;;;5012492;28;20251;-51
2021/12/21 11:29:22;;;;;;;3.50;1.98;;;26.10;38.70;;;;;;5030358;28;20287;-39
2021/12/21 11:31:55;;;;;;;4.60;1.88;;;26.10;38.80;;;;;;5012208;28;20628;-50
2021/12/21 11:34:32;;;;;;;4.20;2.47;;;26.10;38.90;;;;;;5029037;28;20658;-47
2021/12/21 11:39:49;;;;;;;4.18;1.88;;;26.10;38.90;;;;;;5011897;28;20207;-42
2021/12/21 11:42:28;;;;;;;3.58;1.90;;;26.00;38.90;;;;;;5027681;28;20231;-50
2021/12/21 11:45:04;;;;;;;4.15;1.98;;;26.00;38.90;;;;;;5028092;28;20436;-53
2021/12/21 11:47:47;;;;;;;3.53;1.73;;;26.00;38.90;;;;;;5028414;28;20319;-50
2021/12/21 11:50:18;;;;;;;3.75;1.65;;;26.00;39.00;;;;;;5027882;28;20688;-43
2021/12/21 11:52:50;;;;;;;2.67;1.40;;;26.00;39.10;;;;;;5015377;28;20278;-54
2021/12/21 11:55:22;;;;;;;4.47;1.83;;;25.90;39.00;;;;;;5024705;28;20287;-48
2021/12/21 11:57:54;;;;;;;3.30;1.75;;;25.90;39.10;;;;;;5019175;28;20308;-38
2021/12/21 12:00:26;;;;;;;3.10;1.75;;;25.90;39.10;;;;;;5021881;28;20315;-42
2021/12/21 12:03:09;;;;;;;3.03;1.45;;;25.80;39.10;;;;;;5027633;28;20288;-48
2021/12/21 12:05:44;;;;;;;2.67;1.13;;;25.80;39.20;;;;;;5027561;28;20295;-49
2021/12/21 12:08:15;;;;;;;3.00;1.50;;;25.80;39.20;;;;;;5028626;28;20303;-45
2021/12/21 12:10:53;;;;;;;5.05;1.75;;;25.80;39.20;;;;;;5027428;28;20283;-48
2021/12/21 12:13:32;;;;;;;3.55;1.50;;;25.80;39.30;;;;;;5026966;28;20199;-50
2021/12/21 12:16:07;;;;;;;3.80;1.65;;;25.70;39.20;;;;;;5027394;28;20282;-51
2021/12/21 12:18:43;;;;;;;4.07;1.40;;;25.80;39.40;;;;;;5028553;28;20302;-43
2021/12/21 12:21:19;;;;;;;2.85;1.45;;;25.70;39.40;;;;;;5028180;28;20319;-43
2021/12/21 12:23:52;;;;;;;2.10;1.30;;;25.70;39.40;;;;;;5027392;28;20250;-48
2021/12/21 12:26:28;;;;;;;2.72;1.50;;;25.70;39.50;;;;;;5028496;28;20860;-55
2021/12/21 12:29:00;;;;;;;2.17;1.30;;;25.70;39.50;;;;;;5013226;28;20283;-42
2021/12/21 12:31:33;;;;;;;4.78;1.55;;;25.70;39.50;;;;;;5012483;28;20814;-47
2021/12/21 12:34:06;;;;;;;2.10;1.17;;;25.60;39.50;;;;;;5028032;28;20275;-45
2021/12/21 12:36:39;;;;;;;3.10;1.30;;;25.60;39.60;;;;;;5021151;28;20288;-39
2021/12/21 12:39:11;;;;;;;3.13;1.63;;;25.60;39.70;;;;;;5025985;28;20203;-45
2021/12/21 12:41:48;;;;;;;3.03;1.45;;;25.50;39.70;;;;;;5026034;28;20224;-43
2021/12/21 12:44:27;;;;;;;2.45;1.30;;;25.50;39.70;;;;;;5027186;28;20350;-46
2021/12/21 12:47:00;;;;;;;3.80;1.30;;;25.50;39.70;;;;;;5026649;28;20306;-45
2021/12/21 12:49:34;;;;;;;3.45;1.40;;;25.50;39.70;;;;;;5026008;28;20206;-43
2021/12/21 12:52:12;;;;;;;1.50;1.23;;;25.50;39.80;;;;;;5016499;28;20291;-40
2021/12/21 12:54:52;;;;;;;2.03;1.13;;;25.50;39.80;;;;;;5023115;28;20208;-46
2021/12/21 12:57:35;;;;;;;1.98;1.00;;;25.40;39.80;;;;;;5018302;28;20228;-43
2021/12/21 13:00:16;;;;;;;1.52;1.10;;;25.40;40.40;;;;;;5021732;28;20287;-45
2021/12/21 13:03:00;;;;;;;1.80;1.30;;;25.40;39.90;;;;;;5016731;28;20259;-39
2021/12/21 13:05:37;;;;;;;2.33;1.20;;;25.40;39.90;;;;;;5023943;28;20647;-41
2021/12/21 13:08:12;;;;;;;2.63;1.30;;;25.40;40.00;;;;;;5017583;28;20216;-48
2021/12/21 13:10:44;;;;;;;2.20;1.35;;;25.40;40.00;;;;;;5013063;28;20291;-48
2021/12/21 13:13:14;;;;;;;2.70;1.40;;;25.30;40.00;;;;;;5021178;28;20290;-38
2021/12/21 13:15:46;;;;;;;2.13;1.25;;;25.30;40.10;;;;;;5021807;28;20228;-54
2021/12/21 13:18:18;;;;;;;1.67;1.27;;;25.30;40.10;;;;;;5017017;28;20659;-39
2021/12/21 13:20:53;;;;;;;1.98;1.17;;;25.30;40.20;;;;;;5017099;28;20688;-51
2021/12/21 13:23:29;;;;;;;2.38;1.00;;;25.30;40.30;;;;;;5024086;28;20200;-42
2021/12/21 13:26:03;;;;;;;1.92;1.20;;;25.30;40.30;;;;;;5013245;28;20563;-49
2021/12/21 13:28:38;;;;;;;2.10;1.25;;;25.20;40.30;;;;;;5012381;28;20299;-51
2021/12/21 13:31:10;;;;;;;2.28;1.20;;;25.20;40.40;;;;;;5027855;28;20275;-40
2021/12/21 13:33:44;;;;;;;2.08;1.08;;;25.20;40.40;;;;;;5027996;28;20247;-50
2021/12/21 13:36:16;;;;;;;2.30;1.30;;;25.20;40.40;;;;;;5010933;28;20272;-39
2021/12/21 13:38:47;;;;;;;2.30;1.20;;;25.10;40.40;;;;;;5027591;28;20307;-40
2021/12/21 13:41:19;;;;;;;2.42;1.20;;;25.20;41.10;;;;;;5027513;28;20306;-39
2021/12/21 13:43:57;;;;;;;2.25;1.33;;;25.10;41.10;;;;;;5027096;28;20211;-48
2021/12/21 13:46:34;;;;;;;1.17;0.90;;;25.10;40.50;;;;;;5029864;28;20210;-51
2021/12/21 13:49:04;;;;;;;1.55;1.10;;;25.10;40.50;;;;;;5029542;28;20280;-42
2021/12/21 13:51:36;;;;;;;1.90;1.00;;;25.10;40.50;;;;;;5030036;28;20282;-49